sensor_id;sensor_type;location;lat;lon;timestamp;P1;durP1;ratioP1;P2;durP2;ratioP2
84189;SDS011;74321;53.406;8.146;2024-02-26T00:03:14;55.13;;;13.82;;
84189;SDS011;74321;53.406;8.146;2024-02-26T00:08:20;161.93;;;18.90;;
84189;SDS011;74321;53.406;8.146;2024-02-26T00:13:28;82.05;;;17.20;;
84189;SDS011;74321;53.406;8.146;2024-02-26T00:18:31;64.90;;;13.35;;
84189;SDS011;74321;53.406;8.146;2024-02-26T00:23:35;57.65;;;14.55;;
84189;SDS011;74321;53.406;8.146;2024-02-26T00:28:37;32.47;;;11.77;;
84189;SDS011;74321;53.406;8.146;2024-02-26T00:33:40;56.17;;;13.38;;
84189;SDS011;74321;53.406;8.146;2024-02-26T00:38:43;47.03;;;13.05;;
84189;SDS011;74321;53.406;8.146;2024-02-26T00:43:48;89.28;;;18.88;;
84189;SDS011;74321;53.406;8.146;2024-02-26T00:48:50;87.45;;;20.10;;
84189;SDS011;74321;53.406;8.146;2024-02-26T00:53:56;99.47;;;20.70;;
84189;SDS011;74321;53.406;8.146;2024-02-26T00:58:58;85.38;;;20.65;;
84189;SDS011;74321;53.406;8.146;2024-02-26T01:04:04;93.28;;;20.92;;
84189;SDS011;74321;53.406;8.146;2024-02-26T01:09:13;75.93;;;18.52;;
84189;SDS011;74321;53.406;8.146;2024-02-26T01:14:21;91.45;;;19.80;;
84189;SDS011;74321;53.406;8.146;2024-02-26T01:19:26;95.63;;;20.17;;
84189;SDS011;74321;53.406;8.146;2024-02-26T01:24:29;103.07;;;18.52;;
84189;SDS011;74321;53.406;8.146;2024-02-26T01:29:31;116.35;;;21.83;;
84189;SDS011;74321;53.406;8.146;2024-02-26T01:34:33;127.05;;;24.60;;
84189;SDS011;74321;53.406;8.146;2024-02-26T01:39:36;137.88;;;24.98;;
84189;SDS011;74321;53.406;8.146;2024-02-26T01:44:46;99.25;;;17.63;;
84189;SDS011;74321;53.406;8.146;2024-02-26T01:49:48;88.05;;;17.50;;
84189;SDS011;74321;53.406;8.146;2024-02-26T01:54:51;72.85;;;15.45;;
84189;SDS011;74321;53.406;8.146;2024-02-26T01:59:55;64.18;;;14.00;;
84189;SDS011;74321;53.406;8.146;2024-02-26T02:04:59;57.63;;;12.60;;
84189;SDS011;74321;53.406;8.146;2024-02-26T02:10:01;56.78;;;11.65;;
84189;SDS011;74321;53.406;8.146;2024-02-26T02:15:03;49.70;;;12.25;;
84189;SDS011;74321;53.406;8.146;2024-02-26T02:20:14;53.63;;;12.18;;
84189;SDS011;74321;53.406;8.146;2024-02-26T02:25:28;45.33;;;11.48;;
84189;SDS011;74321;53.406;8.146;2024-02-26T02:30:31;26.00;;;8.55;;
84189;SDS011;74321;53.406;8.146;2024-02-26T02:35:36;22.50;;;7.35;;
84189;SDS011;74321;53.406;8.146;2024-02-26T02:40:41;19.02;;;6.90;;
84189;SDS011;74321;53.406;8.146;2024-02-26T02:45:44;18.60;;;7.22;;
84189;SDS011;74321;53.406;8.146;2024-02-26T02:50:48;24.55;;;7.90;;
84189;SDS011;74321;53.406;8.146;2024-02-26T02:55:51;20.17;;;7.57;;
84189;SDS011;74321;53.406;8.146;2024-02-26T03:01:07;22.00;;;7.43;;
84189;SDS011;74321;53.406;8.146;2024-02-26T03:06:10;18.75;;;6.18;;
84189;SDS011;74321;53.406;8.146;2024-02-26T03:11:17;17.90;;;6.63;;
84189;SDS011;74321;53.406;8.146;2024-02-26T03:16:21;14.88;;;5.75;;
84189;SDS011;74321;53.406;8.146;2024-02-26T03:21:26;18.98;;;6.30;;
84189;SDS011;74321;53.406;8.146;2024-02-26T03:26:30;20.20;;;7.10;;
84189;SDS011;74321;53.406;8.146;2024-02-26T03:31:32;25.80;;;8.05;;
84189;SDS011;74321;53.406;8.146;2024-02-26T03:36:35;28.13;;;7.97;;
84189;SDS011;74321;53.406;8.146;2024-02-26T03:41:40;25.42;;;7.55;;
84189;SDS011;74321;53.406;8.146;2024-02-26T03:46:43;23.98;;;7.50;;
84189;SDS011;74321;53.406;8.146;2024-02-26T03:51:47;20.92;;;7.72;;
84189;SDS011;74321;53.406;8.146;2024-02-26T03:56:50;19.50;;;7.25;;
84189;SDS011;74321;53.406;8.146;2024-02-26T04:01:52;24.65;;;7.85;;
84189;SDS011;74321;53.406;8.146;2024-02-26T04:06:54;26.38;;;7.35;;
84189;SDS011;74321;53.406;8.146;2024-02-26T04:11:56;28.15;;;8.55;;
84189;SDS011;74321;53.406;8.146;2024-02-26T04:16:58;30.05;;;9.25;;
84189;SDS011;74321;53.406;8.146;2024-02-26T04:22:00;31.73;;;9.00;;
84189;SDS011;74321;53.406;8.146;2024-02-26T04:27:03;21.50;;;7.28;;
84189;SDS011;74321;53.406;8.146;2024-02-26T04:32:05;20.30;;;6.30;;
84189;SDS011;74321;53.406;8.146;2024-02-26T04:37:08;17.35;;;5.53;;
84189;SDS011;74321;53.406;8.146;2024-02-26T04:42:10;15.55;;;5.53;;
84189;SDS011;74321;53.406;8.146;2024-02-26T04:47:12;14.82;;;5.68;;
84189;SDS011;74321;53.406;8.146;2024-02-26T04:52:15;14.82;;;5.03;;
84189;SDS011;74321;53.406;8.146;2024-02-26T04:57:17;17.30;;;5.75;;
84189;SDS011;74321;53.406;8.146;2024-02-26T05:02:20;13.05;;;5.43;;
84189;SDS011;74321;53.406;8.146;2024-02-26T05:07:22;14.07;;;5.18;;
84189;SDS011;74321;53.406;8.146;2024-02-26T05:12:24;11.07;;;4.70;;
84189;SDS011;74321;53.406;8.146;2024-02-26T05:17:26;14.82;;;5.78;;
84189;SDS011;74321;53.406;8.146;2024-02-26T05:22:28;13.07;;;5.43;;
84189;SDS011;74321;53.406;8.146;2024-02-26T05:27:30;14.65;;;4.90;;
84189;SDS011;74321;53.406;8.146;2024-02-26T05:32:33;13.50;;;4.55;;
84189;SDS011;74321;53.406;8.146;2024-02-26T05:37:35;11.50;;;4.50;;
84189;SDS011;74321;53.406;8.146;2024-02-26T05:42:37;14.43;;;5.38;;
84189;SDS011;74321;53.406;8.146;2024-02-26T05:47:39;11.73;;;5.20;;
84189;SDS011;74321;53.406;8.146;2024-02-26T05:52:44;10.07;;;4.82;;
84189;SDS011;74321;53.406;8.146;2024-02-26T05:57:46;11.05;;;4.28;;
84189;SDS011;74321;53.406;8.146;2024-02-26T06:02:48;11.10;;;4.53;;
84189;SDS011;74321;53.406;8.146;2024-02-26T06:07:50;12.65;;;4.93;;
84189;SDS011;74321;53.406;8.146;2024-02-26T06:12:53;10.60;;;4.82;;
84189;SDS011;74321;53.406;8.146;2024-02-26T06:17:55;10.68;;;5.50;;
84189;SDS011;74321;53.406;8.146;2024-02-26T06:22:57;12.57;;;4.95;;
84189;SDS011;74321;53.406;8.146;2024-02-26T06:27:59;14.80;;;6.00;;
84189;SDS011;74321;53.406;8.146;2024-02-26T06:33:01;12.30;;;6.07;;
84189;SDS011;74321;53.406;8.146;2024-02-26T06:38:04;11.40;;;6.15;;
84189;SDS011;74321;53.406;8.146;2024-02-26T06:43:06;14.15;;;6.75;;
84189;SDS011;74321;53.406;8.146;2024-02-26T06:48:09;12.48;;;5.65;;
84189;SDS011;74321;53.406;8.146;2024-02-26T06:53:11;9.95;;;5.18;;
84189;SDS011;74321;53.406;8.146;2024-02-26T06:58:13;11.55;;;5.82;;
84189;SDS011;74321;53.406;8.146;2024-02-26T07:03:16;10.77;;;4.47;;
84189;SDS011;74321;53.406;8.146;2024-02-26T07:08:18;8.52;;;5.13;;
84189;SDS011;74321;53.406;8.146;2024-02-26T07:13:20;10.18;;;4.70;;
84189;SDS011;74321;53.406;8.146;2024-02-26T07:18:22;9.48;;;4.60;;
84189;SDS011;74321;53.406;8.146;2024-02-26T07:23:25;10.48;;;5.10;;
84189;SDS011;74321;53.406;8.146;2024-02-26T07:28:27;10.85;;;4.97;;
84189;SDS011;74321;53.406;8.146;2024-02-26T07:33:29;10.77;;;5.13;;
84189;SDS011;74321;53.406;8.146;2024-02-26T07:38:31;9.55;;;4.60;;
84189;SDS011;74321;53.406;8.146;2024-02-26T07:43:43;10.23;;;4.65;;
84189;SDS011;74321;53.406;8.146;2024-02-26T07:48:45;8.10;;;4.40;;
84189;SDS011;74321;53.406;8.146;2024-02-26T07:53:48;8.48;;;4.82;;
84189;SDS011;74321;53.406;8.146;2024-02-26T07:58:50;8.35;;;4.38;;
84189;SDS011;74321;53.406;8.146;2024-02-26T08:03:55;9.43;;;4.65;;
84189;SDS011;74321;53.406;8.146;2024-02-26T08:08:57;11.27;;;4.95;;
84189;SDS011;74321;53.406;8.146;2024-02-26T08:13:59;7.88;;;4.25;;
84189;SDS011;74321;53.406;8.146;2024-02-26T08:19:01;8.88;;;4.63;;
84189;SDS011;74321;53.406;8.146;2024-02-26T08:24:04;6.47;;;3.80;;
84189;SDS011;74321;53.406;8.146;2024-02-26T08:29:06;6.93;;;3.75;;
84189;SDS011;74321;53.406;8.146;2024-02-26T08:34:08;9.05;;;4.55;;
84189;SDS011;74321;53.406;8.146;2024-02-26T08:39:11;6.57;;;3.83;;
84189;SDS011;74321;53.406;8.146;2024-02-26T08:44:15;7.28;;;3.83;;
84189;SDS011;74321;53.406;8.146;2024-02-26T08:49:17;9.60;;;5.10;;
84189;SDS011;74321;53.406;8.146;2024-02-26T08:54:20;8.07;;;4.60;;
84189;SDS011;74321;53.406;8.146;2024-02-26T08:59:22;9.52;;;4.15;;
84189;SDS011;74321;53.406;8.146;2024-02-26T09:04:24;6.20;;;3.72;;
84189;SDS011;74321;53.406;8.146;2024-02-26T09:09:28;6.40;;;3.70;;
84189;SDS011;74321;53.406;8.146;2024-02-26T09:14:30;8.18;;;4.20;;
84189;SDS011;74321;53.406;8.146;2024-02-26T09:19:32;8.70;;;4.07;;
84189;SDS011;74321;53.406;8.146;2024-02-26T09:24:34;8.63;;;4.97;;
84189;SDS011;74321;53.406;8.146;2024-02-26T09:29:36;9.52;;;4.38;;
84189;SDS011;74321;53.406;8.146;2024-02-26T09:34:39;9.85;;;4.72;;
84189;SDS011;74321;53.406;8.146;2024-02-26T09:39:42;7.22;;;4.07;;
84189;SDS011;74321;53.406;8.146;2024-02-26T09:44:44;7.22;;;4.07;;
84189;SDS011;74321;53.406;8.146;2024-02-26T09:49:47;8.23;;;4.25;;
84189;SDS011;74321;53.406;8.146;2024-02-26T09:54:50;8.25;;;4.57;;
84189;SDS011;74321;53.406;8.146;2024-02-26T09:59:56;7.18;;;3.97;;
84189;SDS011;74321;53.406;8.146;2024-02-26T10:05:04;6.00;;;3.72;;
84189;SDS011;74321;53.406;8.146;2024-02-26T10:10:10;7.63;;;3.80;;
84189;SDS011;74321;53.406;8.146;2024-02-26T10:15:12;9.60;;;4.78;;
84189;SDS011;74321;53.406;8.146;2024-02-26T10:20:15;10.85;;;5.20;;
84189;SDS011;74321;53.406;8.146;2024-02-26T10:25:25;9.30;;;4.95;;
84189;SDS011;74321;53.406;8.146;2024-02-26T10:30:27;8.93;;;4.47;;
84189;SDS011;74321;53.406;8.146;2024-02-26T10:35:30;9.02;;;4.63;;
84189;SDS011;74321;53.406;8.146;2024-02-26T10:40:33;7.25;;;4.25;;
84189;SDS011;74321;53.406;8.146;2024-02-26T10:45:35;8.32;;;4.40;;
84189;SDS011;74321;53.406;8.146;2024-02-26T10:50:39;8.93;;;4.78;;
84189;SDS011;74321;53.406;8.146;2024-02-26T10:55:42;6.70;;;4.30;;
84189;SDS011;74321;53.406;8.146;2024-02-26T11:00:47;7.47;;;4.85;;
84189;SDS011;74321;53.406;8.146;2024-02-26T11:05:52;7.20;;;4.10;;
84189;SDS011;74321;53.406;8.146;2024-02-26T11:10:54;9.63;;;4.65;;
84189;SDS011;74321;53.406;8.146;2024-02-26T11:15:58;9.07;;;5.15;;
84189;SDS011;74321;53.406;8.146;2024-02-26T11:21:00;8.25;;;4.20;;
84189;SDS011;74321;53.406;8.146;2024-02-26T11:26:04;10.10;;;5.90;;
84189;SDS011;74321;53.406;8.146;2024-02-26T11:31:08;9.25;;;5.45;;
84189;SDS011;74321;53.406;8.146;2024-02-26T11:36:11;9.23;;;4.93;;
84189;SDS011;74321;53.406;8.146;2024-02-26T11:41:15;8.73;;;4.90;;
84189;SDS011;74321;53.406;8.146;2024-02-26T11:51:50;8.73;;;4.82;;
84189;SDS011;74321;53.406;8.146;2024-02-26T11:56:53;9.57;;;5.65;;
84189;SDS011;74321;53.406;8.146;2024-02-26T12:01:55;10.30;;;5.28;;
84189;SDS011;74321;53.406;8.146;2024-02-26T12:07:03;9.35;;;5.55;;
84189;SDS011;74321;53.406;8.146;2024-02-26T12:12:06;11.27;;;6.15;;
84189;SDS011;74321;53.406;8.146;2024-02-26T12:17:18;12.73;;;6.82;;
84189;SDS011;74321;53.406;8.146;2024-02-26T12:22:25;12.43;;;6.65;;
84189;SDS011;74321;53.406;8.146;2024-02-26T12:27:27;13.15;;;6.47;;
84189;SDS011;74321;53.406;8.146;2024-02-26T12:32:29;14.32;;;6.45;;
84189;SDS011;74321;53.406;8.146;2024-02-26T12:37:32;11.45;;;5.90;;
84189;SDS011;74321;53.406;8.146;2024-02-26T12:42:35;12.38;;;6.47;;
84189;SDS011;74321;53.406;8.146;2024-02-26T12:47:42;14.27;;;6.15;;
84189;SDS011;74321;53.406;8.146;2024-02-26T12:52:45;11.95;;;5.43;;
84189;SDS011;74321;53.406;8.146;2024-02-26T12:57:48;12.25;;;6.65;;
84189;SDS011;74321;53.406;8.146;2024-02-26T13:02:53;12.50;;;6.65;;
84189;SDS011;74321;53.406;8.146;2024-02-26T13:07:57;14.35;;;6.95;;
84189;SDS011;74321;53.406;8.146;2024-02-26T13:13:01;15.02;;;7.38;;
84189;SDS011;74321;53.406;8.146;2024-02-26T13:18:10;13.30;;;6.95;;
84189;SDS011;74321;53.406;8.146;2024-02-26T13:23:14;14.75;;;7.10;;
84189;SDS011;74321;53.406;8.146;2024-02-26T13:28:17;12.77;;;6.75;;
84189;SDS011;74321;53.406;8.146;2024-02-26T13:33:26;12.82;;;7.07;;
84189;SDS011;74321;53.406;8.146;2024-02-26T13:38:29;16.38;;;7.63;;
84189;SDS011;74321;53.406;8.146;2024-02-26T13:43:31;14.73;;;7.60;;
84189;SDS011;74321;53.406;8.146;2024-02-26T13:48:33;12.82;;;7.47;;
84189;SDS011;74321;53.406;8.146;2024-02-26T13:53:35;15.70;;;8.20;;
84189;SDS011;74321;53.406;8.146;2024-02-26T13:58:37;13.07;;;7.13;;
84189;SDS011;74321;53.406;8.146;2024-02-26T14:03:40;14.35;;;8.05;;
84189;SDS011;74321;53.406;8.146;2024-02-26T14:08:42;15.85;;;8.25;;
84189;SDS011;74321;53.406;8.146;2024-02-26T14:13:44;14.10;;;7.40;;
84189;SDS011;74321;53.406;8.146;2024-02-26T14:18:48;16.17;;;9.00;;
84189;SDS011;74321;53.406;8.146;2024-02-26T14:23:52;17.48;;;9.82;;
84189;SDS011;74321;53.406;8.146;2024-02-26T14:28:54;17.10;;;9.80;;
84189;SDS011;74321;53.406;8.146;2024-02-26T14:34:00;15.27;;;7.90;;
84189;SDS011;74321;53.406;8.146;2024-02-26T14:39:03;15.70;;;7.68;;
84189;SDS011;74321;53.406;8.146;2024-02-26T14:44:07;13.93;;;6.80;;
84189;SDS011;74321;53.406;8.146;2024-02-26T14:49:11;12.77;;;6.65;;
84189;SDS011;74321;53.406;8.146;2024-02-26T14:54:16;16.05;;;8.02;;
84189;SDS011;74321;53.406;8.146;2024-02-26T14:59:19;20.67;;;9.15;;
84189;SDS011;74321;53.406;8.146;2024-02-26T15:04:21;16.20;;;8.00;;
84189;SDS011;74321;53.406;8.146;2024-02-26T15:09:23;14.48;;;7.25;;
84189;SDS011;74321;53.406;8.146;2024-02-26T15:14:26;13.80;;;6.57;;
84189;SDS011;74321;53.406;8.146;2024-02-26T15:19:28;15.75;;;8.45;;
84189;SDS011;74321;53.406;8.146;2024-02-26T15:24:33;17.73;;;8.77;;
84189;SDS011;74321;53.406;8.146;2024-02-26T15:29:35;17.17;;;8.35;;
84189;SDS011;74321;53.406;8.146;2024-02-26T15:34:38;18.33;;;9.80;;
84189;SDS011;74321;53.406;8.146;2024-02-26T15:39:41;17.15;;;8.80;;
84189;SDS011;74321;53.406;8.146;2024-02-26T15:44:44;18.85;;;8.68;;
84189;SDS011;74321;53.406;8.146;2024-02-26T15:49:48;18.60;;;9.70;;
84189;SDS011;74321;53.406;8.146;2024-02-26T15:54:51;16.02;;;8.52;;
84189;SDS011;74321;53.406;8.146;2024-02-26T15:59:54;16.27;;;8.15;;
84189;SDS011;74321;53.406;8.146;2024-02-26T16:05:12;15.57;;;8.63;;
84189;SDS011;74321;53.406;8.146;2024-02-26T16:10:15;19.88;;;9.10;;
84189;SDS011;74321;53.406;8.146;2024-02-26T16:15:19;18.77;;;8.77;;
84189;SDS011;74321;53.406;8.146;2024-02-26T16:31:05;19.38;;;8.75;;
84189;SDS011;74321;53.406;8.146;2024-02-26T16:36:09;18.58;;;8.90;;
84189;SDS011;74321;53.406;8.146;2024-02-26T16:41:15;19.40;;;8.90;;
84189;SDS011;74321;53.406;8.146;2024-02-26T16:46:17;16.48;;;7.70;;
84189;SDS011;74321;53.406;8.146;2024-02-26T16:51:20;21.50;;;9.90;;
84189;SDS011;74321;53.406;8.146;2024-02-26T16:56:23;20.17;;;9.30;;
84189;SDS011;74321;53.406;8.146;2024-02-26T17:01:25;16.13;;;7.60;;
84189;SDS011;74321;53.406;8.146;2024-02-26T17:06:27;16.73;;;8.02;;
84189;SDS011;74321;53.406;8.146;2024-02-26T17:11:29;20.83;;;9.65;;
84189;SDS011;74321;53.406;8.146;2024-02-26T17:16:32;20.27;;;9.27;;
84189;SDS011;74321;53.406;8.146;2024-02-26T17:21:34;20.42;;;9.52;;
84189;SDS011;74321;53.406;8.146;2024-02-26T17:26:36;20.02;;;8.05;;
84189;SDS011;74321;53.406;8.146;2024-02-26T17:31:39;19.95;;;8.82;;
84189;SDS011;74321;53.406;8.146;2024-02-26T17:36:44;17.98;;;8.07;;
84189;SDS011;74321;53.406;8.146;2024-02-26T17:41:46;18.88;;;8.40;;
84189;SDS011;74321;53.406;8.146;2024-02-26T17:46:48;21.48;;;8.98;;
84189;SDS011;74321;53.406;8.146;2024-02-26T17:51:50;21.40;;;8.77;;
84189;SDS011;74321;53.406;8.146;2024-02-26T17:56:52;23.10;;;9.02;;
84189;SDS011;74321;53.406;8.146;2024-02-26T18:01:55;20.65;;;8.77;;
84189;SDS011;74321;53.406;8.146;2024-02-26T18:06:57;26.83;;;10.63;;
84189;SDS011;74321;53.406;8.146;2024-02-26T18:12:00;25.58;;;9.77;;
84189;SDS011;74321;53.406;8.146;2024-02-26T18:17:03;25.48;;;10.57;;
84189;SDS011;74321;53.406;8.146;2024-02-26T18:22:05;30.63;;;12.52;;
84189;SDS011;74321;53.406;8.146;2024-02-26T18:27:07;28.75;;;10.77;;
84189;SDS011;74321;53.406;8.146;2024-02-26T18:32:10;30.77;;;11.80;;
84189;SDS011;74321;53.406;8.146;2024-02-26T18:37:12;35.05;;;12.30;;
84189;SDS011;74321;53.406;8.146;2024-02-26T18:42:14;33.33;;;12.52;;
84189;SDS011;74321;53.406;8.146;2024-02-26T18:47:18;27.63;;;11.75;;
84189;SDS011;74321;53.406;8.146;2024-02-26T18:52:21;31.35;;;12.80;;
84189;SDS011;74321;53.406;8.146;2024-02-26T18:57:24;37.50;;;12.60;;
84189;SDS011;74321;53.406;8.146;2024-02-26T19:02:26;30.90;;;12.70;;
84189;SDS011;74321;53.406;8.146;2024-02-26T19:07:30;29.60;;;12.00;;
84189;SDS011;74321;53.406;8.146;2024-02-26T19:12:32;27.08;;;11.98;;
84189;SDS011;74321;53.406;8.146;2024-02-26T19:17:34;28.85;;;11.80;;
84189;SDS011;74321;53.406;8.146;2024-02-26T19:22:37;34.50;;;13.85;;
84189;SDS011;74321;53.406;8.146;2024-02-26T19:27:43;34.50;;;12.35;;
84189;SDS011;74321;53.406;8.146;2024-02-26T19:32:46;34.35;;;14.30;;
84189;SDS011;74321;53.406;8.146;2024-02-26T19:37:48;37.67;;;13.60;;
84189;SDS011;74321;53.406;8.146;2024-02-26T19:42:51;34.38;;;12.68;;
84189;SDS011;74321;53.406;8.146;2024-02-26T19:47:53;38.38;;;12.15;;
84189;SDS011;74321;53.406;8.146;2024-02-26T19:52:55;42.20;;;14.07;;
84189;SDS011;74321;53.406;8.146;2024-02-26T19:57:59;38.13;;;13.15;;
84189;SDS011;74321;53.406;8.146;2024-02-26T20:03:02;38.55;;;13.48;;
84189;SDS011;74321;53.406;8.146;2024-02-26T20:08:08;38.67;;;12.75;;
84189;SDS011;74321;53.406;8.146;2024-02-26T20:13:10;42.45;;;13.95;;
84189;SDS011;74321;53.406;8.146;2024-02-26T20:18:12;42.58;;;13.55;;
84189;SDS011;74321;53.406;8.146;2024-02-26T20:23:14;46.85;;;14.88;;
84189;SDS011;74321;53.406;8.146;2024-02-26T20:28:16;41.72;;;13.50;;
84189;SDS011;74321;53.406;8.146;2024-02-26T20:33:18;46.22;;;14.75;;
84189;SDS011;74321;53.406;8.146;2024-02-26T20:38:24;40.03;;;13.20;;
84189;SDS011;74321;53.406;8.146;2024-02-26T20:43:26;40.67;;;14.20;;
84189;SDS011;74321;53.406;8.146;2024-02-26T20:48:28;41.72;;;13.65;;
84189;SDS011;74321;53.406;8.146;2024-02-26T20:53:30;36.50;;;13.20;;
84189;SDS011;74321;53.406;8.146;2024-02-26T20:58:32;35.15;;;12.98;;
84189;SDS011;74321;53.406;8.146;2024-02-26T21:03:37;29.60;;;12.50;;
84189;SDS011;74321;53.406;8.146;2024-02-26T21:08:40;34.95;;;12.70;;
84189;SDS011;74321;53.406;8.146;2024-02-26T21:13:42;34.10;;;12.10;;
84189;SDS011;74321;53.406;8.146;2024-02-26T21:18:45;45.55;;;13.85;;
84189;SDS011;74321;53.406;8.146;2024-02-26T21:23:47;37.58;;;12.02;;
84189;SDS011;74321;53.406;8.146;2024-02-26T21:28:50;38.70;;;13.30;;
84189;SDS011;74321;53.406;8.146;2024-02-26T21:33:55;38.75;;;13.15;;
84189;SDS011;74321;53.406;8.146;2024-02-26T21:38:57;41.25;;;12.50;;
84189;SDS011;74321;53.406;8.146;2024-02-26T21:43:59;56.80;;;14.93;;
84189;SDS011;74321;53.406;8.146;2024-02-26T21:49:07;43.38;;;12.90;;
84189;SDS011;74321;53.406;8.146;2024-02-26T21:54:10;45.20;;;14.57;;
84189;SDS011;74321;53.406;8.146;2024-02-26T21:59:14;51.00;;;15.57;;
84189;SDS011;74321;53.406;8.146;2024-02-26T22:04:16;48.53;;;13.95;;
84189;SDS011;74321;53.406;8.146;2024-02-26T22:09:19;48.42;;;14.38;;
84189;SDS011;74321;53.406;8.146;2024-02-26T22:14:21;56.63;;;15.40;;
84189;SDS011;74321;53.406;8.146;2024-02-26T22:19:26;52.55;;;15.50;;
84189;SDS011;74321;53.406;8.146;2024-02-26T22:24:28;55.70;;;15.60;;
84189;SDS011;74321;53.406;8.146;2024-02-26T22:29:30;45.97;;;13.18;;
84189;SDS011;74321;53.406;8.146;2024-02-26T22:34:32;51.88;;;14.00;;
84189;SDS011;74321;53.406;8.146;2024-02-26T22:39:35;43.92;;;12.57;;
84189;SDS011;74321;53.406;8.146;2024-02-26T22:44:40;46.17;;;13.45;;
84189;SDS011;74321;53.406;8.146;2024-02-26T22:49:42;40.20;;;13.13;;
84189;SDS011;74321;53.406;8.146;2024-02-26T22:54:44;49.35;;;13.50;;
84189;SDS011;74321;53.406;8.146;2024-02-26T22:59:46;50.20;;;14.43;;
84189;SDS011;74321;53.406;8.146;2024-02-26T23:04:48;43.10;;;13.63;;
84189;SDS011;74321;53.406;8.146;2024-02-26T23:09:50;44.60;;;13.80;;
84189;SDS011;74321;53.406;8.146;2024-02-26T23:14:52;54.75;;;14.85;;
84189;SDS011;74321;53.406;8.146;2024-02-26T23:19:55;60.40;;;15.88;;
84189;SDS011;74321;53.406;8.146;2024-02-26T23:24:57;59.38;;;14.93;;
84189;SDS011;74321;53.406;8.146;2024-02-26T23:30:00;55.05;;;15.70;;
84189;SDS011;74321;53.406;8.146;2024-02-26T23:35:02;63.08;;;15.73;;
84189;SDS011;74321;53.406;8.146;2024-02-26T23:40:05;63.33;;;15.60;;
84189;SDS011;74321;53.406;8.146;2024-02-26T23:45:08;70.47;;;14.48;;
84189;SDS011;74321;53.406;8.146;2024-02-26T23:50:11;67.25;;;15.00;;
84189;SDS011;74321;53.406;8.146;2024-02-26T23:55:13;52.00;;;14.55;;
